createdAt,value
2018-07-17T00:00:13.933Z,4.67
2018-07-17T00:02:42.254Z,5.60
2018-07-17T00:05:10.816Z,7.08
2018-07-17T00:07:39.132Z,7.17
2018-07-17T00:10:07.975Z,4.47
2018-07-17T00:12:36.471Z,7.07
2018-07-17T00:15:05.062Z,6.63
2018-07-17T00:17:33.958Z,4.00
2018-07-17T00:20:02.275Z,5.62
2018-07-17T00:22:30.595Z,4.55
2018-07-17T00:24:58.935Z,5.05
2018-07-17T00:27:27.277Z,4.65
2018-07-17T00:29:55.591Z,4.60
2018-07-17T00:32:23.912Z,5.42
2018-07-17T00:34:52.245Z,4.65
2018-07-17T00:37:20.589Z,5.78
2018-07-17T00:39:49.045Z,4.08
2018-07-17T00:42:17.370Z,6.00
2018-07-17T00:44:45.736Z,5.28
2018-07-17T00:47:14.056Z,5.17
2018-07-17T00:49:42.401Z,7.25
2018-07-17T00:52:10.756Z,8.88
2018-07-17T00:54:39.069Z,6.65
2018-07-17T00:57:07.481Z,4.05
2018-07-17T00:59:35.860Z,5.15
2018-07-17T01:02:09.627Z,7.00
2018-07-17T01:04:43.298Z,6.80
2018-07-17T01:07:17.148Z,5.00
2018-07-17T01:09:50.841Z,5.95
2018-07-17T01:12:18.282Z,4.10
2018-07-17T01:14:50.745Z,4.17
2018-07-17T01:17:19.129Z,4.20
2018-07-17T01:19:47.547Z,9.98
2018-07-17T01:22:15.891Z,4.53
2018-07-17T01:24:44.272Z,6.40
2018-07-17T01:27:12.680Z,4.28
2018-07-17T01:29:40.992Z,4.42
2018-07-17T01:32:09.303Z,5.70
2018-07-17T01:34:37.668Z,8.55
2018-07-17T01:37:05.989Z,6.78
2018-07-17T01:39:34.329Z,4.97
2018-07-17T01:42:02.647Z,4.28
2018-07-17T01:44:30.967Z,5.05
2018-07-17T01:46:59.271Z,4.22
2018-07-17T01:49:27.653Z,4.20
2018-07-17T01:51:55.980Z,4.97
2018-07-17T01:56:35.852Z,7.85
2018-07-17T01:59:04.224Z,6.22
2018-07-17T02:01:32.625Z,4.72
2018-07-17T02:04:01.000Z,4.25
2018-07-17T02:06:29.366Z,4.70
2018-07-17T02:08:57.792Z,5.30
2018-07-17T02:11:26.158Z,6.00
2018-07-17T02:13:54.488Z,6.72
2018-07-17T02:16:22.902Z,5.72
2018-07-17T02:18:51.326Z,6.20
2018-07-17T02:21:19.636Z,5.93
2018-07-17T02:23:47.952Z,5.93
2018-07-17T02:26:16.286Z,5.77
2018-07-17T02:28:44.593Z,6.07
2018-07-17T02:31:13.000Z,5.07
2018-07-17T02:33:41.285Z,7.17
2018-07-17T02:36:09.664Z,7.27
2018-07-17T02:38:37.972Z,8.03
2018-07-17T02:41:06.597Z,4.20
2018-07-17T02:43:34.916Z,6.03
2018-07-17T02:46:03.325Z,4.55
2018-07-17T02:48:31.645Z,7.00
2018-07-17T02:50:59.995Z,5.78
2018-07-17T02:53:28.337Z,6.10
2018-07-17T02:55:56.658Z,10.50
2018-07-17T02:58:25.019Z,6.15
2018-07-17T03:00:53.354Z,6.00
2018-07-17T03:03:22.292Z,6.47
2018-07-17T03:05:50.671Z,7.62
2018-07-17T03:08:18.983Z,8.10
2018-07-17T03:10:47.290Z,6.12
2018-07-17T03:13:15.616Z,5.78
2018-07-17T03:15:43.977Z,9.75
2018-07-17T03:18:12.310Z,5.53
2018-07-17T03:20:40.646Z,6.50
2018-07-17T03:23:09.141Z,8.40
2018-07-17T03:25:37.483Z,5.20
2018-07-17T03:28:05.805Z,6.58
2018-07-17T03:30:34.122Z,6.35
2018-07-17T03:33:02.532Z,5.30
2018-07-17T03:35:30.940Z,10.13
2018-07-17T03:37:59.237Z,6.62
2018-07-17T03:40:27.587Z,6.15
2018-07-17T03:42:55.945Z,6.47
2018-07-17T03:45:24.248Z,7.78
2018-07-17T03:47:52.595Z,8.10
2018-07-17T03:50:20.887Z,5.75
2018-07-17T03:52:49.253Z,9.25
2018-07-17T03:55:17.657Z,6.35
2018-07-17T03:57:46.017Z,5.55
2018-07-17T04:00:14.380Z,7.17
2018-07-17T04:02:42.729Z,8.60
2018-07-17T04:05:11.073Z,6.83
2018-07-17T04:07:39.438Z,6.80
2018-07-17T04:10:07.805Z,11.05
2018-07-17T04:12:36.156Z,6.70
2018-07-17T04:15:04.493Z,6.90
2018-07-17T04:17:32.875Z,7.87
2018-07-17T04:20:01.213Z,6.05
2018-07-17T04:22:30.541Z,6.05
2018-07-17T04:24:58.860Z,8.45
2018-07-17T04:27:27.371Z,6.80
2018-07-17T04:29:55.827Z,9.30
2018-07-17T04:32:24.137Z,8.65
2018-07-17T04:34:52.451Z,5.53
2018-07-17T04:37:20.751Z,8.18
2018-07-17T04:39:49.097Z,6.10
2018-07-17T04:42:17.444Z,6.28
2018-07-17T04:44:45.775Z,5.70
2018-07-17T04:47:14.145Z,5.70
2018-07-17T04:49:42.504Z,5.33
2018-07-17T04:52:10.959Z,6.20
2018-07-17T04:54:39.313Z,7.47
2018-07-17T04:57:07.835Z,8.03
2018-07-17T04:59:36.162Z,11.08
2018-07-17T05:02:04.547Z,6.37
2018-07-17T05:04:32.871Z,7.22
2018-07-17T05:07:01.222Z,7.22
2018-07-17T05:09:29.547Z,6.60
2018-07-17T05:11:57.862Z,8.93
2018-07-17T05:14:26.270Z,9.58
2018-07-17T05:16:54.774Z,7.15
2018-07-17T05:19:23.246Z,6.73
2018-07-17T05:21:51.574Z,7.30
2018-07-17T05:24:20.006Z,11.33
2018-07-17T05:26:48.292Z,8.33
2018-07-17T05:29:16.969Z,10.00
2018-07-17T05:31:45.334Z,11.90
2018-07-17T05:34:13.702Z,10.18
2018-07-17T05:36:42.098Z,12.68
2018-07-17T05:39:10.462Z,13.75
2018-07-17T05:41:38.993Z,14.05
2018-07-17T05:44:07.325Z,7.72
2018-07-17T05:46:35.731Z,9.23
2018-07-17T05:49:04.180Z,14.77
2018-07-17T05:51:32.549Z,9.85
2018-07-17T05:54:00.899Z,12.68
2018-07-17T05:56:29.281Z,11.30
2018-07-17T05:58:57.726Z,16.35
2018-07-17T06:01:26.084Z,11.48
2018-07-17T06:03:54.416Z,11.80
2018-07-17T06:06:22.775Z,12.98
2018-07-17T06:08:51.125Z,8.48
2018-07-17T06:11:19.492Z,9.10
2018-07-17T06:13:47.848Z,15.60
2018-07-17T06:16:16.258Z,12.70
2018-07-17T06:18:44.604Z,8.85
2018-07-17T06:21:12.941Z,8.98
2018-07-17T06:23:41.292Z,10.88
2018-07-17T06:26:09.658Z,9.85
2018-07-17T06:28:37.992Z,10.10
2018-07-17T06:31:06.364Z,12.93
2018-07-17T06:33:34.827Z,13.88
2018-07-17T06:36:03.249Z,9.05
2018-07-17T06:38:31.589Z,12.80
2018-07-17T06:41:00.299Z,8.73
2018-07-17T06:43:29.617Z,10.60
2018-07-17T06:45:58.020Z,11.12
2018-07-17T06:48:26.391Z,10.20
2018-07-17T06:50:54.842Z,11.60
2018-07-17T06:53:23.129Z,14.45
2018-07-17T06:55:51.437Z,13.03
2018-07-17T06:58:19.972Z,12.63
2018-07-17T07:00:48.284Z,9.20
2018-07-17T07:03:16.615Z,8.00
2018-07-17T07:05:44.957Z,10.30
2018-07-17T07:08:13.329Z,10.15
2018-07-17T07:10:41.675Z,9.43
2018-07-17T07:13:10.075Z,10.63
2018-07-17T07:15:38.432Z,8.53
2018-07-17T07:18:06.753Z,11.50
2018-07-17T07:20:35.112Z,12.65
2018-07-17T07:23:04.084Z,9.80
2018-07-17T07:25:32.394Z,11.47
2018-07-17T07:28:00.728Z,8.25
2018-07-17T07:30:29.108Z,9.58
2018-07-17T07:32:57.461Z,12.20
2018-07-17T07:35:26.081Z,13.58
2018-07-17T07:37:54.428Z,14.25
2018-07-17T07:40:22.776Z,14.50
2018-07-17T07:42:51.252Z,11.50
2018-07-17T07:45:19.524Z,11.70
2018-07-17T07:47:47.875Z,12.60
2018-07-17T07:50:16.280Z,13.43
2018-07-17T07:52:44.679Z,14.15
2018-07-17T07:55:13.023Z,9.20
2018-07-17T07:57:41.372Z,9.60
2018-07-17T08:00:09.710Z,16.33
2018-07-17T08:02:38.106Z,12.43
2018-07-17T08:05:06.767Z,13.18
2018-07-17T08:07:35.124Z,10.08
2018-07-17T08:10:03.508Z,15.95
2018-07-17T08:12:31.814Z,11.90
2018-07-17T08:15:00.155Z,10.48
2018-07-17T08:17:28.442Z,9.27
2018-07-17T08:19:56.802Z,10.45
2018-07-17T08:22:25.134Z,13.20
2018-07-17T08:24:53.480Z,16.65
2018-07-17T08:27:21.781Z,12.25
2018-07-17T08:29:50.152Z,15.37
2018-07-17T08:32:18.457Z,13.80
2018-07-17T08:34:46.775Z,13.08
2018-07-17T08:37:15.104Z,18.17
2018-07-17T08:39:43.420Z,14.33
2018-07-17T08:42:11.815Z,12.77
2018-07-17T08:44:40.170Z,12.35
2018-07-17T08:47:08.522Z,13.68
2018-07-17T08:49:36.965Z,12.80
2018-07-17T08:52:05.835Z,15.20
2018-07-17T08:54:34.217Z,12.35
2018-07-17T08:57:02.536Z,17.65
2018-07-17T08:59:30.880Z,21.62
2018-07-17T09:01:59.214Z,15.93
2018-07-17T09:04:27.514Z,20.90
2018-07-17T09:06:55.873Z,15.15
2018-07-17T09:09:24.224Z,16.67
2018-07-17T09:11:52.518Z,16.23
2018-07-17T09:14:20.887Z,19.53
2018-07-17T09:16:49.220Z,17.25
2018-07-17T09:19:17.594Z,15.30
2018-07-17T09:21:45.910Z,20.32
2018-07-17T09:24:14.352Z,17.75
2018-07-17T09:26:42.671Z,14.07
2018-07-17T09:29:11.022Z,17.62
2018-07-17T09:31:39.378Z,12.88
2018-07-17T09:34:07.710Z,10.32
2018-07-17T09:36:36.130Z,12.33
2018-07-17T09:39:06.324Z,11.53
2018-07-17T09:41:34.665Z,12.35
2018-07-17T09:44:03.040Z,12.20
2018-07-17T09:46:31.379Z,11.73
2018-07-17T09:48:59.744Z,9.43
2018-07-17T09:51:28.057Z,10.30
2018-07-17T09:53:56.415Z,14.30
2018-07-17T09:56:24.765Z,8.95
2018-07-17T09:58:53.082Z,11.00
2018-07-17T10:01:26.533Z,8.80
2018-07-17T10:03:54.866Z,9.38
2018-07-17T10:06:23.248Z,19.07
2018-07-17T10:08:51.543Z,7.10
2018-07-17T10:11:19.852Z,6.35
2018-07-17T10:13:48.187Z,6.83
2018-07-17T10:16:16.661Z,7.70
2018-07-17T10:18:45.058Z,7.37
2018-07-17T10:21:13.374Z,9.23
2018-07-17T10:23:41.725Z,6.30
2018-07-17T10:26:10.097Z,7.35
2018-07-17T10:28:38.440Z,9.15
2018-07-17T10:31:07.019Z,6.57
2018-07-17T10:33:35.321Z,4.87
2018-07-17T10:36:03.806Z,12.00
2018-07-17T10:38:32.136Z,7.28
2018-07-17T10:41:00.596Z,5.97
2018-07-17T10:43:28.906Z,4.58
2018-07-17T10:45:57.233Z,6.13
2018-07-17T10:48:25.552Z,9.50
2018-07-17T10:50:53.865Z,9.05
2018-07-17T10:53:22.343Z,7.83
2018-07-17T10:55:50.708Z,8.48
2018-07-17T10:58:19.079Z,12.45
2018-07-17T11:00:47.409Z,9.98
2018-07-17T11:03:15.775Z,8.53
2018-07-17T11:05:44.357Z,8.75
2018-07-17T11:08:12.710Z,12.07
2018-07-17T11:10:41.097Z,12.23
2018-07-17T11:13:09.422Z,8.90
2018-07-17T11:15:37.772Z,9.88
2018-07-17T11:18:06.127Z,10.25
2018-07-17T11:20:34.472Z,11.83
2018-07-17T11:23:02.773Z,16.65
2018-07-17T11:25:31.145Z,11.73
2018-07-17T11:27:59.506Z,18.30
2018-07-17T11:30:27.832Z,12.53
2018-07-17T11:32:56.223Z,14.73
2018-07-17T11:35:24.545Z,11.78
2018-07-17T11:37:52.908Z,12.45
2018-07-17T11:40:21.231Z,11.15
2018-07-17T11:42:49.550Z,8.87
2018-07-17T11:45:17.867Z,8.85
2018-07-17T11:47:46.218Z,11.93
2018-07-17T11:50:14.583Z,10.10
2018-07-17T11:52:42.908Z,8.57
2018-07-17T11:55:11.217Z,16.25
2018-07-17T11:57:39.575Z,13.40
2018-07-17T12:00:07.900Z,14.65
2018-07-17T12:02:36.210Z,14.63
2018-07-17T12:05:04.740Z,11.40
2018-07-17T12:07:33.136Z,15.00
2018-07-17T12:10:01.467Z,17.15
2018-07-17T12:12:29.826Z,13.90
2018-07-17T12:14:58.225Z,12.00
2018-07-17T12:17:26.529Z,13.15
2018-07-17T12:19:54.938Z,8.65
2018-07-17T12:22:23.307Z,13.60
2018-07-17T12:24:51.710Z,13.08
2018-07-17T12:27:20.097Z,7.63
2018-07-17T12:29:48.461Z,9.98
2018-07-17T12:32:16.813Z,8.30
2018-07-17T12:34:45.174Z,12.47
2018-07-17T12:37:13.536Z,8.18
2018-07-17T12:39:41.871Z,5.73
2018-07-17T12:42:10.199Z,6.08
2018-07-17T12:44:38.557Z,7.20
2018-07-17T12:47:06.930Z,9.43
2018-07-17T12:49:35.276Z,7.95
2018-07-17T12:52:03.606Z,8.93
2018-07-17T12:54:31.967Z,9.93
2018-07-17T12:57:00.286Z,11.63
2018-07-17T12:59:28.598Z,8.63
2018-07-17T13:01:56.956Z,6.33
2018-07-17T13:04:25.257Z,7.00
2018-07-17T13:06:53.592Z,6.53
2018-07-17T13:09:21.964Z,5.60
2018-07-17T13:11:50.255Z,5.50
2018-07-17T13:14:18.595Z,5.10
2018-07-17T13:16:46.951Z,2.40
2018-07-17T13:19:15.298Z,2.40
2018-07-17T13:21:43.612Z,2.17
2018-07-17T13:24:12.037Z,2.15
2018-07-17T13:26:40.401Z,2.53
2018-07-17T13:29:08.705Z,4.65
2018-07-17T13:31:37.077Z,6.78
2018-07-17T13:34:05.499Z,5.12
2018-07-17T13:36:33.812Z,3.52
2018-07-17T13:39:02.138Z,5.37
2018-07-17T13:41:30.518Z,5.65
2018-07-17T13:43:58.840Z,8.60
2018-07-17T13:46:27.192Z,5.00
2018-07-17T13:48:55.545Z,4.78
2018-07-17T13:51:23.941Z,9.07
2018-07-17T13:53:52.296Z,6.42
2018-07-17T13:56:20.709Z,12.68
2018-07-17T13:58:49.014Z,7.40
2018-07-17T14:01:17.483Z,3.93
2018-07-17T14:03:45.806Z,8.00
2018-07-17T14:06:14.157Z,8.75
2018-07-17T14:08:42.572Z,7.53
2018-07-17T14:11:10.948Z,4.40
2018-07-17T14:13:39.576Z,5.20
2018-07-17T14:16:07.905Z,7.10
2018-07-17T14:18:36.509Z,3.20
2018-07-17T14:21:04.961Z,2.60
2018-07-17T14:23:33.355Z,4.53
2018-07-17T14:26:01.733Z,2.75
2018-07-17T14:28:30.109Z,2.92
2018-07-17T14:30:58.476Z,5.72
2018-07-17T14:33:26.827Z,3.17
2018-07-17T14:35:55.316Z,4.83
2018-07-17T14:38:23.599Z,7.27
2018-07-17T14:40:51.897Z,6.25
2018-07-17T14:43:20.297Z,5.65
2018-07-17T14:45:48.677Z,5.50
2018-07-17T14:48:17.017Z,4.30
2018-07-17T14:50:45.327Z,4.90
2018-07-17T14:53:13.690Z,6.72
2018-07-17T14:55:42.058Z,3.92
2018-07-17T14:58:10.409Z,7.28
2018-07-17T15:00:38.759Z,4.85
2018-07-17T15:03:07.133Z,6.08
2018-07-17T15:05:35.481Z,4.35
2018-07-17T15:08:03.797Z,6.00
2018-07-17T15:10:32.153Z,4.35
2018-07-17T15:13:00.581Z,4.00
2018-07-17T15:15:28.946Z,5.35
2018-07-17T15:17:57.273Z,4.55
2018-07-17T15:20:25.646Z,5.62
2018-07-17T15:22:53.989Z,5.97
2018-07-17T15:25:22.336Z,6.62
2018-07-17T15:27:50.698Z,7.60
2018-07-17T15:30:19.031Z,3.55
2018-07-17T15:32:47.353Z,3.60
2018-07-17T15:35:15.771Z,3.50
2018-07-17T15:37:44.057Z,6.40
2018-07-17T15:40:12.377Z,2.77
2018-07-17T15:42:40.836Z,3.58
2018-07-17T15:45:09.326Z,4.42
2018-07-17T15:47:37.710Z,6.50
2018-07-17T15:50:06.069Z,5.00
2018-07-17T15:52:34.508Z,5.00
2018-07-17T15:55:02.873Z,7.10
2018-07-17T15:57:31.216Z,3.45
2018-07-17T15:59:59.636Z,3.20
2018-07-17T16:02:28.010Z,10.40
2018-07-17T16:04:56.519Z,9.03
2018-07-17T16:07:24.827Z,4.30
2018-07-17T16:09:53.490Z,6.30
2018-07-17T16:12:21.848Z,6.70
2018-07-17T16:14:50.706Z,3.00
2018-07-17T16:17:19.060Z,4.00
2018-07-17T16:19:47.396Z,6.97
2018-07-17T16:22:15.708Z,4.55
2018-07-17T16:24:44.156Z,4.60
2018-07-17T16:27:12.744Z,8.25
2018-07-17T16:29:41.070Z,4.40
2018-07-17T16:32:09.907Z,7.85
2018-07-17T16:34:38.216Z,6.45
2018-07-17T16:37:06.513Z,6.67
2018-07-17T16:39:35.153Z,6.25
2018-07-17T16:42:03.503Z,4.03
2018-07-17T16:44:31.802Z,4.13
2018-07-17T16:47:00.152Z,7.87
2018-07-17T16:49:28.497Z,8.85
2018-07-17T16:51:56.912Z,6.20
2018-07-17T16:54:25.346Z,3.20
2018-07-17T16:56:53.705Z,3.60
2018-07-17T16:59:21.973Z,3.30
2018-07-17T17:01:50.319Z,4.75
2018-07-17T17:04:18.655Z,5.50
2018-07-17T17:06:46.980Z,4.20
2018-07-17T17:09:15.308Z,5.45
2018-07-17T17:11:43.593Z,5.23
2018-07-17T17:14:11.935Z,6.03
2018-07-17T17:16:40.809Z,4.47
2018-07-17T17:19:09.161Z,6.00
2018-07-17T17:21:37.860Z,5.75
2018-07-17T17:24:06.456Z,6.30
2018-07-17T17:26:34.690Z,8.03
2018-07-17T17:31:44.252Z,6.40
2018-07-17T17:34:12.553Z,6.95
2018-07-17T17:36:40.948Z,9.50
2018-07-17T17:39:10.564Z,7.17
2018-07-17T17:41:39.173Z,5.12
2018-07-17T17:44:08.437Z,8.30
2018-07-17T17:46:37.180Z,5.87
2018-07-17T17:49:05.817Z,3.80
2018-07-17T17:51:34.168Z,6.35
2018-07-17T17:54:02.597Z,6.50
2018-07-17T17:56:30.943Z,5.60
2018-07-17T17:58:59.298Z,5.60
2018-07-17T18:01:27.653Z,14.90
2018-07-17T18:03:56.060Z,8.93
2018-07-17T18:06:24.372Z,8.98
2018-07-17T18:08:52.870Z,7.70
2018-07-17T18:11:21.217Z,11.50
2018-07-17T18:13:49.740Z,9.68
2018-07-17T18:16:18.189Z,8.13
2018-07-17T18:18:46.555Z,7.17
2018-07-17T18:21:14.907Z,8.43
2018-07-17T18:23:43.287Z,5.92
2018-07-17T18:26:11.674Z,11.40
2018-07-17T18:28:40.104Z,6.87
2018-07-17T18:31:08.668Z,10.25
2018-07-17T18:33:37.032Z,7.83
2018-07-17T18:36:05.448Z,8.75
2018-07-17T18:38:33.972Z,7.70
2018-07-17T18:41:02.443Z,7.17
2018-07-17T18:43:30.811Z,7.42
2018-07-17T18:45:59.155Z,10.78
2018-07-17T18:48:27.500Z,7.95
2018-07-17T18:50:55.870Z,8.70
2018-07-17T18:53:24.203Z,10.78
2018-07-17T18:55:52.489Z,11.70
2018-07-17T18:58:20.855Z,13.00
2018-07-17T19:00:49.213Z,13.98
2018-07-17T19:03:17.536Z,18.35
2018-07-17T19:05:45.998Z,14.35
2018-07-17T19:08:14.358Z,13.30
2018-07-17T19:10:42.700Z,12.15
2018-07-17T19:13:11.039Z,14.28
2018-07-17T19:15:39.464Z,11.73
2018-07-17T19:18:07.999Z,12.47
2018-07-17T19:20:36.733Z,16.90
2018-07-17T19:23:05.111Z,18.62
2018-07-17T19:25:33.551Z,22.40
2018-07-17T19:28:01.874Z,21.65
2018-07-17T19:30:30.284Z,18.63
2018-07-17T19:32:58.724Z,12.73
2018-07-17T19:35:27.136Z,13.50
2018-07-17T19:37:55.401Z,11.80
2018-07-17T19:40:23.771Z,14.47
2018-07-17T19:42:52.183Z,20.52
2018-07-17T19:45:20.524Z,15.18
2018-07-17T19:47:48.843Z,15.83
2018-07-17T19:50:17.276Z,9.75
2018-07-17T19:52:45.653Z,15.95
2018-07-17T19:55:13.985Z,11.75
2018-07-17T19:57:42.470Z,14.20
2018-07-17T20:00:10.900Z,8.68
2018-07-17T20:02:39.240Z,17.35
2018-07-17T20:05:07.600Z,7.60
2018-07-17T20:07:35.958Z,8.83
2018-07-17T20:10:04.794Z,10.10
2018-07-17T20:12:33.153Z,9.53
2018-07-17T20:15:01.475Z,4.40
2018-07-17T20:17:29.846Z,8.38
2018-07-17T20:19:58.237Z,7.77
2018-07-17T20:22:26.574Z,13.40
2018-07-17T20:24:54.915Z,15.10
2018-07-17T20:27:23.262Z,6.70
2018-07-17T20:29:51.578Z,6.90
2018-07-17T20:32:19.981Z,5.20
2018-07-17T20:34:48.278Z,7.83
2018-07-17T20:37:16.657Z,10.95
2018-07-17T20:39:45.081Z,5.58
2018-07-17T20:42:13.423Z,4.97
2018-07-17T20:44:41.766Z,8.05
2018-07-17T20:47:10.086Z,5.15
2018-07-17T20:49:38.411Z,6.67
2018-07-17T20:52:06.987Z,9.08
2018-07-17T20:54:35.657Z,9.68
2018-07-17T20:57:04.017Z,9.35
2018-07-17T20:59:32.365Z,7.15
2018-07-17T21:02:00.704Z,7.83
2018-07-17T21:04:29.022Z,6.15
2018-07-17T21:06:57.363Z,4.30
2018-07-17T21:09:25.717Z,4.92
2018-07-17T21:11:54.033Z,5.92
2018-07-17T21:14:22.463Z,6.42
2018-07-17T21:16:50.799Z,5.30
2018-07-17T21:19:19.107Z,6.12
2018-07-17T21:21:47.468Z,5.87
2018-07-17T21:24:15.811Z,4.27
2018-07-17T21:26:44.250Z,8.00
2018-07-17T21:29:12.612Z,6.57
2018-07-17T21:31:41.044Z,7.90
2018-07-17T21:34:09.411Z,7.10
2018-07-17T21:36:37.751Z,6.20
2018-07-17T21:39:08.743Z,9.95
2018-07-17T21:41:37.070Z,6.75
2018-07-17T21:44:05.406Z,4.80
2018-07-17T21:46:33.773Z,9.28
2018-07-17T21:49:02.120Z,8.00
2018-07-17T21:51:30.397Z,6.78
2018-07-17T21:53:58.767Z,6.70
2018-07-17T21:56:27.181Z,4.97
2018-07-17T21:58:55.461Z,7.47
2018-07-17T22:01:23.814Z,7.10
2018-07-17T22:03:52.160Z,4.50
2018-07-17T22:06:20.560Z,4.90
2018-07-17T22:08:48.911Z,4.20
2018-07-17T22:11:17.221Z,4.47
2018-07-17T22:13:45.545Z,3.10
2018-07-17T22:16:13.900Z,2.97
2018-07-17T22:18:42.249Z,4.00
2018-07-17T22:21:10.614Z,6.33
2018-07-17T22:23:38.958Z,7.87
2018-07-17T22:26:07.330Z,8.40
2018-07-17T22:28:35.672Z,3.72
2018-07-17T22:31:04.061Z,6.08
2018-07-17T22:33:32.399Z,3.55
2018-07-17T22:36:01.758Z,6.00
2018-07-17T22:38:30.087Z,5.60
2018-07-17T22:40:58.483Z,3.67
2018-07-17T22:43:27.006Z,2.70
2018-07-17T22:45:55.360Z,3.77
2018-07-17T22:48:23.770Z,7.33
2018-07-17T22:50:52.140Z,9.30
2018-07-17T22:53:20.677Z,8.93
2018-07-17T22:55:49.028Z,2.93
2018-07-17T22:58:17.332Z,3.10
2018-07-17T23:00:45.798Z,5.20
2018-07-17T23:03:14.158Z,5.57
2018-07-17T23:05:42.483Z,4.60
2018-07-17T23:08:10.902Z,5.50
2018-07-17T23:10:39.265Z,3.67
2018-07-17T23:13:07.590Z,2.53
2018-07-17T23:15:35.985Z,4.40
2018-07-17T23:18:04.295Z,5.20
2018-07-17T23:20:32.712Z,3.97
2018-07-17T23:23:01.247Z,4.20
2018-07-17T23:25:30.952Z,4.12
2018-07-17T23:27:59.914Z,8.75
2018-07-17T23:30:28.566Z,6.75
2018-07-17T23:32:56.931Z,8.68
2018-07-17T23:35:26.007Z,4.00
2018-07-17T23:37:54.573Z,6.75
2018-07-17T23:40:23.357Z,6.70
2018-07-17T23:42:51.723Z,5.25
2018-07-17T23:45:20.070Z,4.00
2018-07-17T23:47:49.108Z,5.35
2018-07-17T23:50:17.602Z,7.10
2018-07-17T23:52:45.952Z,6.50
2018-07-17T23:55:14.275Z,5.87
2018-07-17T23:57:42.637Z,4.55
